sensor_id;sensor_type;location;lat;lon;timestamp;temperature;humidity
19968;DHT22;10145;49.152;9.282;2022-12-20T05:02:20;2.40;99.90
19968;DHT22;10145;49.152;9.282;2022-12-20T05:04:45;2.50;99.90
19968;DHT22;10145;49.152;9.282;2022-12-20T05:07:11;2.50;99.90
19968;DHT22;10145;49.152;9.282;2022-12-20T05:09:36;2.50;99.90
19968;DHT22;10145;49.152;9.282;2022-12-20T05:12:02;2.60;99.90
19968;DHT22;10145;49.152;9.282;2022-12-20T05:14:28;2.60;99.90
19968;DHT22;10145;49.152;9.282;2022-12-20T05:16:53;2.60;99.90
19968;DHT22;10145;49.152;9.282;2022-12-20T05:19:19;2.50;99.90
19968;DHT22;10145;49.152;9.282;2022-12-20T05:21:44;2.60;99.90
19968;DHT22;10145;49.152;9.282;2022-12-20T05:24:28;2.50;99.90
19968;DHT22;10145;49.152;9.282;2022-12-20T05:27:12;2.60;99.90
19968;DHT22;10145;49.152;9.282;2022-12-20T05:29:38;2.60;99.90
19968;DHT22;10145;49.152;9.282;2022-12-20T05:32:03;2.60;99.90
19968;DHT22;10145;49.152;9.282;2022-12-20T05:34:29;2.60;99.90
19968;DHT22;10145;49.152;9.282;2022-12-20T05:36:55;2.60;99.90
19968;DHT22;10145;49.152;9.282;2022-12-20T05:39:20;2.60;99.90
19968;DHT22;10145;49.152;9.282;2022-12-20T05:41:46;2.60;99.90
19968;DHT22;10145;49.152;9.282;2022-12-20T05:44:11;2.60;99.90
19968;DHT22;10145;49.152;9.282;2022-12-20T05:46:37;2.70;99.90
19968;DHT22;10145;49.152;9.282;2022-12-20T05:49:02;2.70;99.90
19968;DHT22;10145;49.152;9.282;2022-12-20T05:51:28;2.70;99.90
19968;DHT22;10145;49.152;9.282;2022-12-20T05:53:53;2.70;99.90
19968;DHT22;10145;49.152;9.282;2022-12-20T05:56:19;2.70;99.90
19968;DHT22;10145;49.152;9.282;2022-12-20T05:58:45;2.70;99.90
19968;DHT22;10145;49.152;9.282;2022-12-20T06:01:10;2.70;99.90
19968;DHT22;10145;49.152;9.282;2022-12-20T06:03:37;2.70;99.90
19968;DHT22;10145;49.152;9.282;2022-12-20T06:06:03;2.70;99.90
19968;DHT22;10145;49.152;9.282;2022-12-20T06:08:29;2.70;99.90
19968;DHT22;10145;49.152;9.282;2022-12-20T06:10:54;2.70;99.90
19968;DHT22;10145;49.152;9.282;2022-12-20T06:13:20;2.70;99.90
19968;DHT22;10145;49.152;9.282;2022-12-20T06:15:46;2.60;99.90
19968;DHT22;10145;49.152;9.282;2022-12-20T06:18:12;2.60;99.90
19968;DHT22;10145;49.152;9.282;2022-12-20T06:20:38;2.60;99.90
19968;DHT22;10145;49.152;9.282;2022-12-20T06:23:04;2.60;99.90
19968;DHT22;10145;49.152;9.282;2022-12-20T06:25:30;2.50;99.90
19968;DHT22;10145;49.152;9.282;2022-12-20T06:27:56;2.50;99.90
19968;DHT22;10145;49.152;9.282;2022-12-20T06:30:21;2.50;99.90
19968;DHT22;10145;49.152;9.282;2022-12-20T06:32:47;2.50;99.90
19968;DHT22;10145;49.152;9.282;2022-12-20T06:35:13;2.50;99.90
19968;DHT22;10145;49.152;9.282;2022-12-20T06:37:39;2.50;99.90
19968;DHT22;10145;49.152;9.282;2022-12-20T06:40:08;2.50;99.90
19968;DHT22;10145;49.152;9.282;2022-12-20T06:42:33;2.50;99.90
19968;DHT22;10145;49.152;9.282;2022-12-20T06:44:59;2.40;99.90
19968;DHT22;10145;49.152;9.282;2022-12-20T06:47:24;2.40;99.90
19968;DHT22;10145;49.152;9.282;2022-12-20T06:49:50;2.30;99.90
19968;DHT22;10145;49.152;9.282;2022-12-20T06:52:15;2.30;99.90
19968;DHT22;10145;49.152;9.282;2022-12-20T06:54:41;2.20;99.90
19968;DHT22;10145;49.152;9.282;2022-12-20T06:57:06;2.30;99.90
19968;DHT22;10145;49.152;9.282;2022-12-20T06:59:32;2.20;99.90
19968;DHT22;10145;49.152;9.282;2022-12-20T07:01:58;2.20;99.90
19968;DHT22;10145;49.152;9.282;2022-12-20T07:04:23;2.10;99.90
19968;DHT22;10145;49.152;9.282;2022-12-20T07:06:49;2.10;99.90
19968;DHT22;10145;49.152;9.282;2022-12-20T07:09:15;2.10;99.90
19968;DHT22;10145;49.152;9.282;2022-12-20T07:11:41;2.10;99.90
19968;DHT22;10145;49.152;9.282;2022-12-20T07:14:08;2.00;99.90
19968;DHT22;10145;49.152;9.282;2022-12-20T07:16:34;2.00;99.90
19968;DHT22;10145;49.152;9.282;2022-12-20T07:19:00;2.10;99.90
19968;DHT22;10145;49.152;9.282;2022-12-20T07:21:26;2.10;99.90
19968;DHT22;10145;49.152;9.282;2022-12-20T07:23:51;2.00;99.90
19968;DHT22;10145;49.152;9.282;2022-12-20T07:26:17;2.10;99.90
19968;DHT22;10145;49.152;9.282;2022-12-20T07:28:43;2.10;99.90
19968;DHT22;10145;49.152;9.282;2022-12-20T07:31:09;2.00;99.90
19968;DHT22;10145;49.152;9.282;2022-12-20T07:33:34;2.00;99.90
19968;DHT22;10145;49.152;9.282;2022-12-20T07:36:03;2.10;99.90
19968;DHT22;10145;49.152;9.282;2022-12-20T07:38:29;2.10;99.90
19968;DHT22;10145;49.152;9.282;2022-12-20T07:40:54;2.10;99.90
19968;DHT22;10145;49.152;9.282;2022-12-20T07:43:20;2.10;99.90
19968;DHT22;10145;49.152;9.282;2022-12-20T07:45:45;2.10;99.90
19968;DHT22;10145;49.152;9.282;2022-12-20T07:48:11;2.10;99.90
19968;DHT22;10145;49.152;9.282;2022-12-20T07:50:37;2.20;99.90
19968;DHT22;10145;49.152;9.282;2022-12-20T07:53:04;2.20;99.90
19968;DHT22;10145;49.152;9.282;2022-12-20T07:55:31;2.30;99.90
19968;DHT22;10145;49.152;9.282;2022-12-20T07:58:01;2.30;99.90
19968;DHT22;10145;49.152;9.282;2022-12-20T08:00:29;2.40;99.90
19968;DHT22;10145;49.152;9.282;2022-12-20T08:02:59;2.50;99.90
19968;DHT22;10145;49.152;9.282;2022-12-20T08:05:26;2.50;99.90
19968;DHT22;10145;49.152;9.282;2022-12-20T08:07:54;2.60;99.90
19968;DHT22;10145;49.152;9.282;2022-12-20T08:10:20;2.70;99.90
19968;DHT22;10145;49.152;9.282;2022-12-20T08:12:47;2.80;99.90
19968;DHT22;10145;49.152;9.282;2022-12-20T08:15:13;2.90;99.90
19968;DHT22;10145;49.152;9.282;2022-12-20T08:17:39;3.00;99.90
19968;DHT22;10145;49.152;9.282;2022-12-20T08:20:05;3.00;99.90
19968;DHT22;10145;49.152;9.282;2022-12-20T08:22:33;3.10;99.90
19968;DHT22;10145;49.152;9.282;2022-12-20T08:25:00;3.10;99.90
19968;DHT22;10145;49.152;9.282;2022-12-20T08:27:25;3.20;99.90
19968;DHT22;10145;49.152;9.282;2022-12-20T08:29:51;3.20;99.90
19968;DHT22;10145;49.152;9.282;2022-12-20T08:32:16;3.20;99.90
19968;DHT22;10145;49.152;9.282;2022-12-20T08:34:42;3.20;99.90
19968;DHT22;10145;49.152;9.282;2022-12-20T08:37:08;3.30;99.90
19968;DHT22;10145;49.152;9.282;2022-12-20T08:39:33;3.40;99.90
19968;DHT22;10145;49.152;9.282;2022-12-20T08:41:59;3.40;99.90
19968;DHT22;10145;49.152;9.282;2022-12-20T08:44:24;3.50;99.90
19968;DHT22;10145;49.152;9.282;2022-12-20T08:46:50;3.50;99.90
19968;DHT22;10145;49.152;9.282;2022-12-20T08:49:16;3.50;99.90
19968;DHT22;10145;49.152;9.282;2022-12-20T08:51:42;3.60;99.90
19968;DHT22;10145;49.152;9.282;2022-12-20T08:54:07;3.70;99.90
19968;DHT22;10145;49.152;9.282;2022-12-20T08:56:33;3.80;99.90
19968;DHT22;10145;49.152;9.282;2022-12-20T08:58:59;3.90;99.90
19968;DHT22;10145;49.152;9.282;2022-12-20T09:01:24;4.00;99.90
19968;DHT22;10145;49.152;9.282;2022-12-20T09:03:51;4.10;99.90
19968;DHT22;10145;49.152;9.282;2022-12-20T09:06:19;4.20;99.90
19968;DHT22;10145;49.152;9.282;2022-12-20T09:08:46;4.30;99.90
19968;DHT22;10145;49.152;9.282;2022-12-20T09:11:14;4.50;99.90
19968;DHT22;10145;49.152;9.282;2022-12-20T09:13:45;4.60;99.90
19968;DHT22;10145;49.152;9.282;2022-12-20T09:16:14;4.80;99.90
19968;DHT22;10145;49.152;9.282;2022-12-20T09:18:39;4.90;99.90
19968;DHT22;10145;49.152;9.282;2022-12-20T09:21:06;4.90;99.90
19968;DHT22;10145;49.152;9.282;2022-12-20T09:23:34;5.00;99.90
19968;DHT22;10145;49.152;9.282;2022-12-20T09:26:04;5.20;99.90
19968;DHT22;10145;49.152;9.282;2022-12-20T09:28:31;5.20;99.90
19968;DHT22;10145;49.152;9.282;2022-12-20T09:31:04;5.20;99.90
19968;DHT22;10145;49.152;9.282;2022-12-20T09:33:30;5.20;99.90
19968;DHT22;10145;49.152;9.282;2022-12-20T09:35:57;5.30;99.90
19968;DHT22;10145;49.152;9.282;2022-12-20T09:38:23;5.40;99.90
19968;DHT22;10145;49.152;9.282;2022-12-20T09:40:51;5.40;99.90
19968;DHT22;10145;49.152;9.282;2022-12-20T09:43:17;5.50;99.90
19968;DHT22;10145;49.152;9.282;2022-12-20T09:45:46;5.60;99.90
19968;DHT22;10145;49.152;9.282;2022-12-20T09:48:24;5.70;99.90
19968;DHT22;10145;49.152;9.282;2022-12-20T09:51:03;5.70;99.90
19968;DHT22;10145;49.152;9.282;2022-12-20T09:56:26;5.70;99.90
19968;DHT22;10145;49.152;9.282;2022-12-20T09:59:11;5.70;99.90
19968;DHT22;10145;49.152;9.282;2022-12-20T10:01:38;5.80;99.90
19968;DHT22;10145;49.152;9.282;2022-12-20T10:04:21;5.90;99.90
19968;DHT22;10145;49.152;9.282;2022-12-20T10:07:11;6.00;99.90
19968;DHT22;10145;49.152;9.282;2022-12-20T10:15:18;6.00;99.90
19968;DHT22;10145;49.152;9.282;2022-12-20T10:23:45;6.00;99.90
19968;DHT22;10145;49.152;9.282;2022-12-20T10:26:12;5.90;99.90
19968;DHT22;10145;49.152;9.282;2022-12-20T10:28:37;5.90;99.90
19968;DHT22;10145;49.152;9.282;2022-12-20T10:31:14;5.80;99.90
19968;DHT22;10145;49.152;9.282;2022-12-20T10:33:40;5.80;99.90
19968;DHT22;10145;49.152;9.282;2022-12-20T10:38:44;5.80;99.90
19968;DHT22;10145;49.152;9.282;2022-12-20T10:41:22;5.80;99.90
19968;DHT22;10145;49.152;9.282;2022-12-20T10:44:14;5.90;99.90
19968;DHT22;10145;49.152;9.282;2022-12-20T10:46:43;5.90;99.90
19968;DHT22;10145;49.152;9.282;2022-12-20T10:49:30;5.90;99.90
19968;DHT22;10145;49.152;9.282;2022-12-20T10:52:16;5.90;99.90
19968;DHT22;10145;49.152;9.282;2022-12-20T10:54:46;6.00;99.90
19968;DHT22;10145;49.152;9.282;2022-12-20T10:59:51;6.20;99.90
19968;DHT22;10145;49.152;9.282;2022-12-20T11:02:30;6.30;99.90
19968;DHT22;10145;49.152;9.282;2022-12-20T11:04:57;6.40;99.90
19968;DHT22;10145;49.152;9.282;2022-12-20T11:07:28;6.40;99.90
19968;DHT22;10145;49.152;9.282;2022-12-20T11:09:59;6.40;99.90
19968;DHT22;10145;49.152;9.282;2022-12-20T11:12:25;6.50;99.90
19968;DHT22;10145;49.152;9.282;2022-12-20T11:15:10;6.50;99.90
19968;DHT22;10145;49.152;9.282;2022-12-20T11:17:43;6.50;99.90
19968;DHT22;10145;49.152;9.282;2022-12-20T11:20:28;6.60;99.90
19968;DHT22;10145;49.152;9.282;2022-12-20T11:23:24;6.70;99.90
19968;DHT22;10145;49.152;9.282;2022-12-20T11:32:22;6.90;99.90
19968;DHT22;10145;49.152;9.282;2022-12-20T11:35:08;6.80;99.90
19968;DHT22;10145;49.152;9.282;2022-12-20T11:38:06;6.80;99.90
19968;DHT22;10145;49.152;9.282;2022-12-20T11:40:58;6.80;99.90
19968;DHT22;10145;49.152;9.282;2022-12-20T11:52:04;6.70;99.90
19968;DHT22;10145;49.152;9.282;2022-12-20T11:54:45;6.70;99.90
19968;DHT22;10145;49.152;9.282;2022-12-20T11:57:24;6.60;99.90
19968;DHT22;10145;49.152;9.282;2022-12-20T12:00:00;6.70;99.90
19968;DHT22;10145;49.152;9.282;2022-12-20T12:02:42;6.70;99.90
19968;DHT22;10145;49.152;9.282;2022-12-20T12:05:36;6.60;99.90
19968;DHT22;10145;49.152;9.282;2022-12-20T12:08:08;6.70;99.90
19968;DHT22;10145;49.152;9.282;2022-12-20T12:10:40;6.80;99.90
19968;DHT22;10145;49.152;9.282;2022-12-20T12:15:58;6.90;99.90
19968;DHT22;10145;49.152;9.282;2022-12-20T12:18:31;6.80;99.90
19968;DHT22;10145;49.152;9.282;2022-12-20T12:23:36;6.60;99.90
19968;DHT22;10145;49.152;9.282;2022-12-20T12:26:12;6.70;99.90
19968;DHT22;10145;49.152;9.282;2022-12-20T12:28:40;6.70;99.90
19968;DHT22;10145;49.152;9.282;2022-12-20T12:31:10;6.70;99.90
19968;DHT22;10145;49.152;9.282;2022-12-20T12:33:49;6.80;99.90
19968;DHT22;10145;49.152;9.282;2022-12-20T12:36:49;6.70;99.90
19968;DHT22;10145;49.152;9.282;2022-12-20T12:39:39;6.70;99.90
19968;DHT22;10145;49.152;9.282;2022-12-20T12:44:58;6.80;99.90
19968;DHT22;10145;49.152;9.282;2022-12-20T12:50:06;6.80;99.90
19968;DHT22;10145;49.152;9.282;2022-12-20T12:52:41;6.90;99.90
19968;DHT22;10145;49.152;9.282;2022-12-20T12:55:33;6.90;99.90
19968;DHT22;10145;49.152;9.282;2022-12-20T12:58:12;7.00;99.90
19968;DHT22;10145;49.152;9.282;2022-12-20T13:01:03;6.90;99.90
19968;DHT22;10145;49.152;9.282;2022-12-20T13:11:39;7.20;99.90
19968;DHT22;10145;49.152;9.282;2022-12-20T13:14:23;7.30;99.90
19968;DHT22;10145;49.152;9.282;2022-12-20T13:19:50;7.80;99.90
19968;DHT22;10145;49.152;9.282;2022-12-20T13:24:59;7.90;99.90
19968;DHT22;10145;49.152;9.282;2022-12-20T13:27:39;7.80;99.90
19968;DHT22;10145;49.152;9.282;2022-12-20T13:38:03;7.40;99.90
19968;DHT22;10145;49.152;9.282;2022-12-20T13:40:48;7.30;99.90
19968;DHT22;10145;49.152;9.282;2022-12-20T13:46:00;7.20;99.90
19968;DHT22;10145;49.152;9.282;2022-12-20T13:48:56;7.20;99.90
19968;DHT22;10145;49.152;9.282;2022-12-20T13:51:23;7.10;99.90
19968;DHT22;10145;49.152;9.282;2022-12-20T13:53:55;7.10;99.90
19968;DHT22;10145;49.152;9.282;2022-12-20T13:58:54;7.00;99.90
19968;DHT22;10145;49.152;9.282;2022-12-20T14:01:22;6.90;99.90
19968;DHT22;10145;49.152;9.282;2022-12-20T14:03:49;6.80;99.90
19968;DHT22;10145;49.152;9.282;2022-12-20T14:06:18;6.80;99.90
19968;DHT22;10145;49.152;9.282;2022-12-20T14:08:50;6.70;99.90
19968;DHT22;10145;49.152;9.282;2022-12-20T14:11:26;6.60;99.90
19968;DHT22;10145;49.152;9.282;2022-12-20T14:13:57;6.60;99.90
19968;DHT22;10145;49.152;9.282;2022-12-20T14:16:26;6.50;99.90
19968;DHT22;10145;49.152;9.282;2022-12-20T14:19:13;6.50;99.90
19968;DHT22;10145;49.152;9.282;2022-12-20T14:21:44;6.50;99.90
19968;DHT22;10145;49.152;9.282;2022-12-20T14:24:16;6.50;99.90
19968;DHT22;10145;49.152;9.282;2022-12-20T14:26:46;6.50;99.90
19968;DHT22;10145;49.152;9.282;2022-12-20T14:29:17;6.50;99.90
19968;DHT22;10145;49.152;9.282;2022-12-20T14:31:46;6.50;99.90
19968;DHT22;10145;49.152;9.282;2022-12-20T14:34:30;6.50;99.90
19968;DHT22;10145;49.152;9.282;2022-12-20T14:37:31;6.40;99.90
19968;DHT22;10145;49.152;9.282;2022-12-20T14:42:35;6.30;99.90
19968;DHT22;10145;49.152;9.282;2022-12-20T14:45:24;6.30;99.90
19968;DHT22;10145;49.152;9.282;2022-12-20T14:47:53;6.30;99.90
19968;DHT22;10145;49.152;9.282;2022-12-20T14:50:32;6.30;99.90
19968;DHT22;10145;49.152;9.282;2022-12-20T14:52:58;6.30;99.90
19968;DHT22;10145;49.152;9.282;2022-12-20T14:55:30;6.30;99.90
19968;DHT22;10145;49.152;9.282;2022-12-20T14:57:56;6.30;99.90
19968;DHT22;10145;49.152;9.282;2022-12-20T15:00:28;6.20;99.90
19968;DHT22;10145;49.152;9.282;2022-12-20T15:03:16;6.20;99.90
19968;DHT22;10145;49.152;9.282;2022-12-20T15:05:49;6.10;99.90
19968;DHT22;10145;49.152;9.282;2022-12-20T15:08:31;6.00;99.90
19968;DHT22;10145;49.152;9.282;2022-12-20T15:13:31;6.00;99.90
19968;DHT22;10145;49.152;9.282;2022-12-20T15:16:01;5.90;99.90
19968;DHT22;10145;49.152;9.282;2022-12-20T15:18:28;5.90;99.90
19968;DHT22;10145;49.152;9.282;2022-12-20T15:23:50;5.80;99.90
19968;DHT22;10145;49.152;9.282;2022-12-20T15:26:19;5.80;99.90
19968;DHT22;10145;49.152;9.282;2022-12-20T15:28:45;5.70;99.90
19968;DHT22;10145;49.152;9.282;2022-12-20T15:31:12;5.70;99.90
19968;DHT22;10145;49.152;9.282;2022-12-20T15:33:40;5.60;99.90
19968;DHT22;10145;49.152;9.282;2022-12-20T15:36:06;5.60;99.90
19968;DHT22;10145;49.152;9.282;2022-12-20T15:38:32;5.60;99.90
19968;DHT22;10145;49.152;9.282;2022-12-20T15:41:04;5.60;99.90
19968;DHT22;10145;49.152;9.282;2022-12-20T15:43:34;5.50;99.90
19968;DHT22;10145;49.152;9.282;2022-12-20T15:46:02;5.50;99.90
19968;DHT22;10145;49.152;9.282;2022-12-20T15:48:28;5.50;99.90
19968;DHT22;10145;49.152;9.282;2022-12-20T15:50:55;5.50;99.90
19968;DHT22;10145;49.152;9.282;2022-12-20T15:53:25;5.40;99.90
19968;DHT22;10145;49.152;9.282;2022-12-20T15:55:54;5.40;99.90
19968;DHT22;10145;49.152;9.282;2022-12-20T15:58:21;5.40;99.90
19968;DHT22;10145;49.152;9.282;2022-12-20T16:00:47;5.30;99.90
19968;DHT22;10145;49.152;9.282;2022-12-20T16:03:19;5.30;99.90
19968;DHT22;10145;49.152;9.282;2022-12-20T16:05:49;5.30;99.90
19968;DHT22;10145;49.152;9.282;2022-12-20T16:08:18;5.30;99.90
19968;DHT22;10145;49.152;9.282;2022-12-20T16:10:45;5.40;99.90
19968;DHT22;10145;49.152;9.282;2022-12-20T16:13:28;5.40;99.90
19968;DHT22;10145;49.152;9.282;2022-12-20T16:15:54;5.40;99.90
19968;DHT22;10145;49.152;9.282;2022-12-20T16:18:20;5.40;99.90
19968;DHT22;10145;49.152;9.282;2022-12-20T16:20:45;5.30;99.90
19968;DHT22;10145;49.152;9.282;2022-12-20T16:23:20;5.30;99.90
19968;DHT22;10145;49.152;9.282;2022-12-20T16:25:49;5.30;99.90
19968;DHT22;10145;49.152;9.282;2022-12-20T16:28:16;5.30;99.90
19968;DHT22;10145;49.152;9.282;2022-12-20T16:30:42;5.30;99.90
19968;DHT22;10145;49.152;9.282;2022-12-20T16:33:18;5.20;99.90
19968;DHT22;10145;49.152;9.282;2022-12-20T16:35:45;5.20;99.90
19968;DHT22;10145;49.152;9.282;2022-12-20T16:38:10;5.30;99.90
19968;DHT22;10145;49.152;9.282;2022-12-20T16:40:36;5.20;99.90
19968;DHT22;10145;49.152;9.282;2022-12-20T16:43:01;5.30;99.90
19968;DHT22;10145;49.152;9.282;2022-12-20T16:45:29;5.20;99.90
19968;DHT22;10145;49.152;9.282;2022-12-20T16:47:55;5.30;99.90
19968;DHT22;10145;49.152;9.282;2022-12-20T16:50:22;5.20;99.90
19968;DHT22;10145;49.152;9.282;2022-12-20T16:52:49;5.20;99.90
19968;DHT22;10145;49.152;9.282;2022-12-20T16:55:23;5.20;99.90
19968;DHT22;10145;49.152;9.282;2022-12-20T16:57:50;5.20;99.90
19968;DHT22;10145;49.152;9.282;2022-12-20T17:00:21;5.20;99.90
19968;DHT22;10145;49.152;9.282;2022-12-20T17:02:48;5.20;99.90
19968;DHT22;10145;49.152;9.282;2022-12-20T17:05:20;5.20;99.90
19968;DHT22;10145;49.152;9.282;2022-12-20T17:07:46;5.20;99.90
19968;DHT22;10145;49.152;9.282;2022-12-20T17:10:11;5.20;99.90
19968;DHT22;10145;49.152;9.282;2022-12-20T17:12:37;5.20;99.90
19968;DHT22;10145;49.152;9.282;2022-12-20T17:15:03;5.20;99.90
19968;DHT22;10145;49.152;9.282;2022-12-20T17:17:29;5.20;99.90
19968;DHT22;10145;49.152;9.282;2022-12-20T17:19:54;5.20;99.90
19968;DHT22;10145;49.152;9.282;2022-12-20T17:22:20;5.20;99.90
19968;DHT22;10145;49.152;9.282;2022-12-20T17:24:45;5.10;99.90
19968;DHT22;10145;49.152;9.282;2022-12-20T17:27:11;5.10;99.90
19968;DHT22;10145;49.152;9.282;2022-12-20T17:29:36;5.10;99.90
19968;DHT22;10145;49.152;9.282;2022-12-20T17:32:02;5.00;99.90
19968;DHT22;10145;49.152;9.282;2022-12-20T17:34:34;4.90;99.90
19968;DHT22;10145;49.152;9.282;2022-12-20T17:37:00;5.00;99.90
19968;DHT22;10145;49.152;9.282;2022-12-20T17:39:26;5.00;99.90
19968;DHT22;10145;49.152;9.282;2022-12-20T17:41:54;5.00;99.90
19968;DHT22;10145;49.152;9.282;2022-12-20T17:44:24;5.10;99.90
19968;DHT22;10145;49.152;9.282;2022-12-20T17:46:51;5.10;99.90
19968;DHT22;10145;49.152;9.282;2022-12-20T17:49:17;5.10;99.90
19968;DHT22;10145;49.152;9.282;2022-12-20T17:51:42;5.10;99.90
19968;DHT22;10145;49.152;9.282;2022-12-20T17:54:16;5.00;99.90
19968;DHT22;10145;49.152;9.282;2022-12-20T17:56:42;5.00;99.90
19968;DHT22;10145;49.152;9.282;2022-12-20T17:59:09;5.00;99.90
19968;DHT22;10145;49.152;9.282;2022-12-20T18:01:35;5.00;99.90
19968;DHT22;10145;49.152;9.282;2022-12-20T18:04:04;5.00;99.90
19968;DHT22;10145;49.152;9.282;2022-12-20T18:06:31;5.00;99.90
19968;DHT22;10145;49.152;9.282;2022-12-20T18:08:57;5.00;99.90
19968;DHT22;10145;49.152;9.282;2022-12-20T18:11:24;4.90;99.90
19968;DHT22;10145;49.152;9.282;2022-12-20T18:13:52;5.00;99.90
19968;DHT22;10145;49.152;9.282;2022-12-20T18:16:21;5.00;99.90
19968;DHT22;10145;49.152;9.282;2022-12-20T18:18:48;5.00;99.90
19968;DHT22;10145;49.152;9.282;2022-12-20T18:21:15;5.00;99.90
19968;DHT22;10145;49.152;9.282;2022-12-20T18:23:43;5.10;99.90
19968;DHT22;10145;49.152;9.282;2022-12-20T18:26:15;5.10;99.90
19968;DHT22;10145;49.152;9.282;2022-12-20T18:28:42;5.10;99.90
19968;DHT22;10145;49.152;9.282;2022-12-20T18:31:10;5.10;99.90
19968;DHT22;10145;49.152;9.282;2022-12-20T18:33:36;5.10;99.90
19968;DHT22;10145;49.152;9.282;2022-12-20T18:36:14;5.10;99.90
19968;DHT22;10145;49.152;9.282;2022-12-20T18:38:41;5.10;99.90
19968;DHT22;10145;49.152;9.282;2022-12-20T18:41:14;5.00;99.90
19968;DHT22;10145;49.152;9.282;2022-12-20T18:43:40;5.00;99.90
19968;DHT22;10145;49.152;9.282;2022-12-20T18:46:08;5.00;99.90
19968;DHT22;10145;49.152;9.282;2022-12-20T18:48:34;4.90;99.90
19968;DHT22;10145;49.152;9.282;2022-12-20T18:53:36;4.70;99.90
19968;DHT22;10145;49.152;9.282;2022-12-20T18:56:04;4.70;99.90
19968;DHT22;10145;49.152;9.282;2022-12-20T18:58:31;4.60;99.90
19968;DHT22;10145;49.152;9.282;2022-12-20T19:01:02;4.50;99.90
19968;DHT22;10145;49.152;9.282;2022-12-20T19:03:28;4.50;99.90
19968;DHT22;10145;49.152;9.282;2022-12-20T19:05:54;4.50;99.90
19968;DHT22;10145;49.152;9.282;2022-12-20T19:08:25;4.40;99.90
19968;DHT22;10145;49.152;9.282;2022-12-20T19:10:51;4.50;99.90
19968;DHT22;10145;49.152;9.282;2022-12-20T19:13:17;4.40;99.90
19968;DHT22;10145;49.152;9.282;2022-12-20T19:15:44;4.50;99.90
19968;DHT22;10145;49.152;9.282;2022-12-20T19:18:10;4.50;99.90
19968;DHT22;10145;49.152;9.282;2022-12-20T19:20:36;4.50;99.90
19968;DHT22;10145;49.152;9.282;2022-12-20T19:23:03;4.60;99.90
19968;DHT22;10145;49.152;9.282;2022-12-20T19:25:31;4.60;99.90
19968;DHT22;10145;49.152;9.282;2022-12-20T19:27:57;4.60;99.90
19968;DHT22;10145;49.152;9.282;2022-12-20T19:30:22;4.60;99.90
19968;DHT22;10145;49.152;9.282;2022-12-20T19:32:48;4.70;99.90
19968;DHT22;10145;49.152;9.282;2022-12-20T19:35:14;4.80;99.90
19968;DHT22;10145;49.152;9.282;2022-12-20T19:37:39;4.80;99.90
19968;DHT22;10145;49.152;9.282;2022-12-20T19:40:05;4.90;99.90
19968;DHT22;10145;49.152;9.282;2022-12-20T19:42:31;4.90;99.90
19968;DHT22;10145;49.152;9.282;2022-12-20T19:44:56;4.90;99.90
19968;DHT22;10145;49.152;9.282;2022-12-20T19:47:22;4.90;99.90
19968;DHT22;10145;49.152;9.282;2022-12-20T19:49:49;5.10;99.90
19968;DHT22;10145;49.152;9.282;2022-12-20T19:52:15;5.20;99.90
19968;DHT22;10145;49.152;9.282;2022-12-20T19:54:41;5.30;99.90
19968;DHT22;10145;49.152;9.282;2022-12-20T19:57:08;5.50;99.90
19968;DHT22;10145;49.152;9.282;2022-12-20T19:59:33;5.50;99.90
19968;DHT22;10145;49.152;9.282;2022-12-20T20:01:59;5.50;99.90
19968;DHT22;10145;49.152;9.282;2022-12-20T20:04:25;5.60;99.90
19968;DHT22;10145;49.152;9.282;2022-12-20T20:06:51;5.60;99.90
19968;DHT22;10145;49.152;9.282;2022-12-20T20:09:17;5.50;99.90
19968;DHT22;10145;49.152;9.282;2022-12-20T20:11:42;5.50;99.90
19968;DHT22;10145;49.152;9.282;2022-12-20T20:14:08;5.50;99.90
19968;DHT22;10145;49.152;9.282;2022-12-20T20:16:35;5.50;99.90
19968;DHT22;10145;49.152;9.282;2022-12-20T20:19:01;5.50;99.90
19968;DHT22;10145;49.152;9.282;2022-12-20T20:21:27;5.40;99.90
19968;DHT22;10145;49.152;9.282;2022-12-20T20:23:54;5.40;99.90
19968;DHT22;10145;49.152;9.282;2022-12-20T20:26:25;5.40;99.90
19968;DHT22;10145;49.152;9.282;2022-12-20T20:28:51;5.30;99.90
19968;DHT22;10145;49.152;9.282;2022-12-20T20:31:18;5.30;99.90
19968;DHT22;10145;49.152;9.282;2022-12-20T20:33:44;5.30;99.90
19968;DHT22;10145;49.152;9.282;2022-12-20T20:36:15;5.30;99.90
19968;DHT22;10145;49.152;9.282;2022-12-20T20:38:41;5.20;99.90
19968;DHT22;10145;49.152;9.282;2022-12-20T20:41:06;5.20;99.90
19968;DHT22;10145;49.152;9.282;2022-12-20T20:43:32;5.10;99.90
19968;DHT22;10145;49.152;9.282;2022-12-20T20:46:02;5.10;99.90
19968;DHT22;10145;49.152;9.282;2022-12-20T20:48:28;5.10;99.90
19968;DHT22;10145;49.152;9.282;2022-12-20T20:50:53;5.10;99.90
19968;DHT22;10145;49.152;9.282;2022-12-20T20:53:19;5.10;99.90
19968;DHT22;10145;49.152;9.282;2022-12-20T20:55:44;5.10;99.90
19968;DHT22;10145;49.152;9.282;2022-12-20T20:58:11;5.10;99.90
19968;DHT22;10145;49.152;9.282;2022-12-20T21:00:36;5.10;99.90
19968;DHT22;10145;49.152;9.282;2022-12-20T21:03:02;5.00;99.90
19968;DHT22;10145;49.152;9.282;2022-12-20T21:05:28;5.00;99.90
19968;DHT22;10145;49.152;9.282;2022-12-20T21:07:54;5.00;99.90
19968;DHT22;10145;49.152;9.282;2022-12-20T21:10:20;5.00;99.90
19968;DHT22;10145;49.152;9.282;2022-12-20T21:12:45;4.90;99.90
19968;DHT22;10145;49.152;9.282;2022-12-20T21:15:11;5.00;99.90
19968;DHT22;10145;49.152;9.282;2022-12-20T21:17:37;5.00;99.90
19968;DHT22;10145;49.152;9.282;2022-12-20T21:20:03;5.00;99.90
19968;DHT22;10145;49.152;9.282;2022-12-20T21:22:29;5.00;99.90
19968;DHT22;10145;49.152;9.282;2022-12-20T21:24:55;5.00;99.90
19968;DHT22;10145;49.152;9.282;2022-12-20T21:27:22;5.00;99.90
19968;DHT22;10145;49.152;9.282;2022-12-20T21:29:47;4.90;99.90
19968;DHT22;10145;49.152;9.282;2022-12-20T21:32:13;4.90;99.90
19968;DHT22;10145;49.152;9.282;2022-12-20T21:34:39;4.90;99.90
19968;DHT22;10145;49.152;9.282;2022-12-20T21:37:04;4.80;99.90
19968;DHT22;10145;49.152;9.282;2022-12-20T21:39:31;4.80;99.90
19968;DHT22;10145;49.152;9.282;2022-12-20T21:41:57;4.80;99.90
19968;DHT22;10145;49.152;9.282;2022-12-20T21:44:22;4.70;99.90
19968;DHT22;10145;49.152;9.282;2022-12-20T21:46:48;4.70;99.90
19968;DHT22;10145;49.152;9.282;2022-12-20T21:49:14;4.70;99.90
19968;DHT22;10145;49.152;9.282;2022-12-20T21:51:39;4.60;99.90
19968;DHT22;10145;49.152;9.282;2022-12-20T21:54:05;4.70;99.90
19968;DHT22;10145;49.152;9.282;2022-12-20T21:56:32;4.70;99.90
19968;DHT22;10145;49.152;9.282;2022-12-20T21:58:58;4.60;99.90
19968;DHT22;10145;49.152;9.282;2022-12-20T22:01:26;4.60;99.90
19968;DHT22;10145;49.152;9.282;2022-12-20T22:03:54;4.70;99.90
19968;DHT22;10145;49.152;9.282;2022-12-20T22:06:20;4.60;99.90
19968;DHT22;10145;49.152;9.282;2022-12-20T22:08:46;4.60;99.90
19968;DHT22;10145;49.152;9.282;2022-12-20T22:11:13;4.60;99.90
19968;DHT22;10145;49.152;9.282;2022-12-20T22:13:40;4.60;99.90
19968;DHT22;10145;49.152;9.282;2022-12-20T22:16:07;4.60;99.90
19968;DHT22;10145;49.152;9.282;2022-12-20T22:18:33;4.60;99.90
19968;DHT22;10145;49.152;9.282;2022-12-20T22:21:02;4.70;99.90